createdAt,value
2022-10-10T00:11:59.413Z,66.20
2022-10-10T00:23:59.930Z,64.48
2022-10-10T00:36:00.380Z,64.37
2022-10-10T00:48:00.808Z,66.07
2022-10-10T01:00:01.237Z,66.13
2022-10-10T01:12:01.667Z,71.87
2022-10-10T01:24:02.187Z,68.80
2022-10-10T01:36:02.615Z,65.17
2022-10-10T01:48:03.067Z,67.44
2022-10-10T02:00:03.545Z,65.20
2022-10-10T02:12:03.976Z,65.87
2022-10-10T02:24:04.395Z,65.05
2022-10-10T02:36:04.898Z,64.69
2022-10-10T02:48:05.341Z,65.02
2022-10-10T03:00:05.790Z,67.86
2022-10-10T03:12:06.239Z,66.58
2022-10-10T03:24:06.682Z,68.34
2022-10-10T03:36:07.147Z,69.66
2022-10-10T03:48:07.577Z,70.19
2022-10-10T04:00:08.146Z,73.65
2022-10-10T04:12:08.478Z,70.52
2022-10-10T04:24:08.975Z,74.21
2022-10-10T04:36:09.419Z,73.52
2022-10-10T04:48:09.853Z,74.16
2022-10-10T05:00:10.311Z,76.03
2022-10-10T05:12:10.759Z,74.90
2022-10-10T05:24:11.230Z,72.78
2022-10-10T05:36:11.658Z,69.14
2022-10-10T05:48:12.112Z,67.03
2022-10-10T06:00:12.587Z,63.56
2022-10-10T06:12:13.046Z,63.17
2022-10-10T06:24:13.478Z,61.80
2022-10-10T06:36:13.919Z,60.29
2022-10-10T06:48:14.394Z,59.86
2022-10-10T07:00:14.819Z,59.57
2022-10-10T07:12:15.285Z,59.98
2022-10-10T07:24:15.702Z,56.75
2022-10-10T07:36:16.215Z,59.24
2022-10-10T07:48:16.666Z,56.19
2022-10-10T08:00:17.095Z,53.59
2022-10-10T08:12:17.516Z,53.17
2022-10-10T08:24:18.016Z,53.11
2022-10-10T08:36:18.493Z,52.79
2022-10-10T08:48:18.927Z,52.03
2022-10-10T09:00:19.323Z,52.22
2022-10-10T09:12:19.818Z,51.32
2022-10-10T09:24:20.281Z,53.61
2022-10-10T09:36:20.723Z,54.15
2022-10-10T09:48:21.159Z,54.76
2022-10-10T10:00:21.659Z,52.45
2022-10-10T10:12:22.091Z,55.74
2022-10-10T10:24:22.553Z,51.25
2022-10-10T10:36:22.984Z,53.09
2022-10-10T10:48:23.450Z,50.06
2022-10-10T11:00:47.237Z,51.99
2022-10-10T11:12:24.364Z,51.37
2022-10-10T11:24:24.791Z,50.76
2022-10-10T11:36:25.337Z,51.42
2022-10-10T11:48:25.790Z,53.11
2022-10-10T12:00:26.133Z,53.36
2022-10-10T12:12:26.637Z,53.00
2022-10-10T12:24:27.120Z,54.18
2022-10-10T12:36:27.577Z,50.60
2022-10-10T12:48:28.013Z,51.02
2022-10-10T13:00:28.462Z,50.33
2022-10-10T13:12:28.929Z,50.49
2022-10-10T13:24:29.362Z,51.33
2022-10-10T13:36:29.794Z,52.16
2022-10-10T13:48:30.292Z,53.97
2022-10-10T14:00:30.745Z,53.53
2022-10-10T14:12:31.226Z,53.51
2022-10-10T14:24:31.656Z,50.79
2022-10-10T14:36:32.131Z,51.87
2022-10-10T14:48:32.562Z,53.33
2022-10-10T15:00:33.028Z,53.11
2022-10-10T15:12:33.488Z,55.23
2022-10-10T15:24:33.884Z,55.89
2022-10-10T15:36:34.394Z,57.58
2022-10-10T15:48:34.842Z,56.83
2022-10-10T16:00:35.308Z,58.66
2022-10-10T16:12:35.716Z,60.82
2022-10-10T16:24:36.213Z,62.52
2022-10-10T16:36:36.650Z,63.39
2022-10-10T16:48:37.059Z,63.52
2022-10-10T17:00:37.577Z,68.24
2022-10-10T17:12:37.995Z,64.77
2022-10-10T17:24:38.466Z,64.90
2022-10-10T17:36:38.920Z,65.82
2022-10-10T17:48:39.371Z,69.37
2022-10-10T18:00:39.810Z,69.50
2022-10-10T18:12:40.233Z,68.47
2022-10-10T18:24:40.755Z,71.83
2022-10-10T18:36:41.191Z,71.62
2022-10-10T18:48:41.654Z,70.62
2022-10-10T19:00:42.124Z,72.02
2022-10-10T19:12:47.070Z,73.71
2022-10-10T19:24:42.992Z,75.15
2022-10-10T19:36:43.485Z,75.62
2022-10-10T19:48:43.906Z,73.79
2022-10-10T20:00:44.367Z,72.71
2022-10-10T20:12:44.800Z,76.54
2022-10-10T20:24:45.259Z,73.91
2022-10-10T20:36:45.721Z,68.69
2022-10-10T20:48:46.147Z,69.69
2022-10-10T21:00:46.641Z,73.11
2022-10-10T21:12:47.090Z,76.66
2022-10-10T21:24:47.531Z,72.01
2022-10-10T21:36:47.984Z,73.67
2022-10-10T21:48:48.439Z,73.54
2022-10-10T22:00:48.957Z,71.30
2022-10-10T22:12:49.355Z,73.75
2022-10-10T22:24:49.783Z,74.45
2022-10-10T22:36:50.236Z,75.84
2022-10-10T22:48:50.731Z,71.83
2022-10-10T23:00:51.224Z,73.86
2022-10-10T23:12:51.619Z,74.44
2022-10-10T23:24:52.075Z,72.85
2022-10-10T23:36:52.540Z,72.78
2022-10-10T23:48:52.985Z,72.25
